GMMBGMME

Guest
Details From GMMB - BEN SLIMANE
To GMME - SALE
Flight Number -
Tags generated
Created
Modified
Stats Distance 34 nm / 63 km
Max Altitude 0 ft / 0 m
Waypoints 3
Social Downloads 0
Likes 0
Share VATSIM

Download

Looking for another format? Having issues loading an existing format? Contact us
Advertisement - Login to hide

Notes

Basic altitude profile: - Ascent Rate: 2500ft/min - Ascent Speed: 250kts - Cruise Altitude: 35000ft - Cruise Speed: 420kts - Descent Rate: 1500ft/min - Descent Speed: 250kts Options: - Use NATs: yes - Use PACOTS: yes - Use low airways: yes - Use high airways: yes

Route

GMMB RBT GMME

ID Type Via Altitude Latitude Longitude Leg Dist Tot Dist Heading (true) Name
O GMMB APT - 0 ft / 0 m 33.65542˚ -7.22145˚ - 0 nm - BEN SLIMANE
RBT VOR - 0 ft / 0 m 34.05000˚ -6.74639˚ 33 nm 33 nm 45° / 45° RABAT VOR-DME
O GMME APT - 0 ft / 0 m 34.05147˚ -6.75152˚ 0 nm 33 nm 289° / 289° SALE

Altitude Profile

Advertisement - Login to hide

GMMB

Details ICAO GMMB
Name BEN SLIMANE
Region Morocco
Timezone Africa/Casablanca (UTC+0.0)
Stats Elevation 627 ft / 191 m (AMSL)
Location 33.655423° -7.221449°
Runways 1
Magnetic Variation 1.698° W

METAR

GMMB 172100Z AUTO 03005KT //// ////// 10/10 Q1027 NOSIG

Decode

TAF

Not found

Departure Runways

ID Width Length Bearing (true) Bearing (mag) Surface Threshold Offset Overrun Length
14 150 ft / 46 m 10,096 ft / 3,077 m 141.46° 143.16° Asphalt 0 ft / 0 m 249 ft / 76 m
32 150 ft / 46 m 10,096 ft / 3,077 m 321.47° 323.17° Asphalt 0 ft / 0 m 249 ft / 76 m

GMME

Details ICAO GMME (RBA)
Name SALE
Region Morocco
Timezone Africa/Casablanca (UTC+0.0)
Stats Elevation 276 ft / 84 m (AMSL)
Location 34.051468° -6.751519°
Runways 1
Magnetic Variation 1.549° W

METAR

GMME 172130Z 07003KT CAVOK 10/08 Q1026 NOSIG

Decode

TAF

TAF GMME 171700Z 1718/1824 04010KT 9999 SCT016 SCT023 TEMPO 1800/1812 10006KT CAVOK TEMPO 1818/1824 16004KT 8000 NSC

Decode

Destination Runways

ID Width Length Bearing (true) Bearing (mag) Surface Threshold Offset Overrun Length
04 148 ft / 45 m 11,503 ft / 3,506 m 31.24° 32.79° Asphalt 0 ft / 0 m 197 ft / 60 m
22 148 ft / 45 m 11,503 ft / 3,506 m 211.25° 212.80° Asphalt 0 ft / 0 m 197 ft / 60 m

Approach Navaids

Runway Type Ident Frequency Range Bearing (true) Bearing (mag) Slope Elevation
22 Localiser RS 110.90 MHz 18 nm / 33 km 211.23° 212.78° - 250 ft / 76 m (AMSL)
22 Glidescope RS 110.90 MHz 10 nm / 19 km 211.24° 212.79° 3.00° 246 ft / 75 m (AMSL)
22 DME RS 110.90 MHz 18 nm / 33 km - - - 39 ft / 12 m (AMSL)